createdAt,value
2022-10-09T00:01:17.317Z,86.05
2022-10-09T00:03:46.405Z,86.43
2022-10-09T00:06:17.057Z,86.44
2022-10-09T00:08:44.384Z,86.29
2022-10-09T00:11:17.427Z,85.95
2022-10-09T00:13:44.588Z,86.33
2022-10-09T00:16:14.617Z,86.69
2022-10-09T00:18:42.863Z,86.23
2022-10-09T00:21:22.792Z,86.05
2022-10-09T00:23:51.103Z,86.15
2022-10-09T00:26:18.673Z,86.29
2022-10-09T00:28:46.452Z,86.66
2022-10-09T00:31:16.750Z,86.85
2022-10-09T00:33:44.262Z,86.82
2022-10-09T00:36:14.587Z,86.96
2022-10-09T00:38:41.875Z,86.61
2022-10-09T00:41:10.753Z,86.93
2022-10-09T00:44:23.990Z,86.76
2022-10-09T00:46:52.527Z,86.57
2022-10-09T00:49:30.066Z,86.66
2022-10-09T00:52:02.205Z,86.67
2022-10-09T00:54:33.942Z,86.74
2022-10-09T00:57:01.383Z,86.78
2022-10-09T00:59:29.203Z,86.53
2022-10-09T01:01:56.457Z,86.48
2022-10-09T01:04:24.100Z,86.44
2022-10-09T01:07:12.456Z,86.29
2022-10-09T01:09:54.580Z,86.79
2022-10-09T01:12:41.306Z,86.89
2022-10-09T01:15:17.263Z,86.88
2022-10-09T01:18:06.475Z,86.80
2022-10-09T01:20:55.143Z,86.72
2022-10-09T01:23:27.953Z,86.85
2022-10-09T01:26:23.747Z,86.67
2022-10-09T01:28:58.342Z,86.97
2022-10-09T01:31:31.121Z,86.79
2022-10-09T01:33:59.954Z,86.97
2022-10-09T01:36:29.792Z,86.59
2022-10-09T01:39:03.385Z,87.46
2022-10-09T01:41:30.825Z,86.95
2022-10-09T01:43:57.914Z,87.43
2022-10-09T01:46:29.947Z,87.27
2022-10-09T01:49:16.073Z,87.52
2022-10-09T01:51:56.824Z,87.71
2022-10-09T01:54:37.535Z,87.93
2022-10-09T01:57:08.662Z,87.88
2022-10-09T01:59:39.224Z,87.70
2022-10-09T02:02:08.029Z,88.01
2022-10-09T02:04:39.144Z,87.44
2022-10-09T02:07:06.632Z,87.45
2022-10-09T02:09:35.813Z,87.57
2022-10-09T02:12:08.583Z,87.29
2022-10-09T02:14:37.391Z,87.72
2022-10-09T02:17:18.862Z,87.40
2022-10-09T02:19:52.513Z,87.41
2022-10-09T02:22:25.543Z,87.75
2022-10-09T02:24:53.483Z,87.43
2022-10-09T02:27:22.264Z,87.35
2022-10-09T02:29:49.942Z,87.69
2022-10-09T02:32:17.151Z,87.68
2022-10-09T02:34:44.745Z,87.30
2022-10-09T02:37:11.942Z,87.36
2022-10-09T02:39:39.268Z,87.39
2022-10-09T02:42:06.549Z,87.29
2022-10-09T02:44:33.544Z,87.40
2022-10-09T02:47:00.863Z,87.37
2022-10-09T02:49:27.987Z,87.42
2022-10-09T02:51:55.064Z,87.36
2022-10-09T02:54:22.183Z,87.00
2022-10-09T02:56:49.267Z,87.36
2022-10-09T02:59:16.475Z,87.20
2022-10-09T03:01:43.640Z,87.63
2022-10-09T03:04:11.072Z,87.51
2022-10-09T03:06:38.188Z,87.61
2022-10-09T03:09:05.599Z,86.91
2022-10-09T03:11:32.983Z,87.32
2022-10-09T03:14:00.163Z,87.27
2022-10-09T03:16:28.371Z,87.17
2022-10-09T03:18:56.626Z,87.09
2022-10-09T03:21:25.749Z,87.37
2022-10-09T03:23:53.833Z,87.39
2022-10-09T03:26:26.383Z,86.96
2022-10-09T03:28:54.564Z,87.35
2022-10-09T03:31:51.700Z,87.26
2022-10-09T03:34:12.553Z,87.30
2022-10-09T03:36:39.675Z,87.65
2022-10-09T03:39:06.781Z,87.07
2022-10-09T03:41:33.868Z,87.40
2022-10-09T03:44:01.064Z,87.15
2022-10-09T03:46:28.420Z,87.43
2022-10-09T03:48:55.869Z,87.32
2022-10-09T03:51:22.946Z,87.32
2022-10-09T03:53:50.285Z,87.20
2022-10-09T03:56:17.552Z,87.24
2022-10-09T03:58:44.748Z,86.95
2022-10-09T04:01:12.125Z,86.96
2022-10-09T04:03:39.332Z,86.91
2022-10-09T04:06:06.751Z,87.11
2022-10-09T04:08:34.071Z,87.20
2022-10-09T04:11:02.555Z,87.12
2022-10-09T04:13:30.082Z,87.14
2022-10-09T04:15:58.265Z,87.34
2022-10-09T04:18:25.465Z,87.51
2022-10-09T04:20:54.954Z,87.72
2022-10-09T04:23:25.874Z,87.85
2022-10-09T04:25:58.904Z,87.02
2022-10-09T04:28:28.029Z,87.16
2022-10-09T04:30:57.512Z,87.67
2022-10-09T04:33:25.665Z,87.63
2022-10-09T04:35:54.537Z,87.83
2022-10-09T04:38:24.025Z,87.89
2022-10-09T04:41:05.793Z,87.98
2022-10-09T04:43:34.235Z,87.79
2022-10-09T04:46:06.319Z,88.12
2022-10-09T04:48:42.151Z,88.81
2022-10-09T04:51:11.483Z,88.38
2022-10-09T04:53:39.832Z,88.47
2022-10-09T04:56:09.643Z,88.86
2022-10-09T04:58:37.383Z,89.13
2022-10-09T05:01:09.163Z,88.85
2022-10-09T05:03:37.137Z,89.12
2022-10-09T05:06:07.095Z,89.09
2022-10-09T05:08:35.785Z,89.38
2022-10-09T05:11:08.144Z,89.46
2022-10-09T05:13:38.534Z,89.66
2022-10-09T05:16:07.404Z,89.61
2022-10-09T05:18:35.476Z,89.26
2022-10-09T05:21:06.346Z,89.34
2022-10-09T05:23:33.403Z,89.78
2022-10-09T05:26:05.227Z,89.58
2022-10-09T05:28:33.642Z,90.00
2022-10-09T05:31:03.615Z,90.23
2022-10-09T05:33:31.058Z,90.27
2022-10-09T05:36:00.823Z,90.19
2022-10-09T05:38:28.706Z,89.70
2022-10-09T05:40:58.533Z,89.82
2022-10-09T05:43:27.906Z,90.17
2022-10-09T05:45:55.257Z,90.04
2022-10-09T05:48:23.504Z,89.68
2022-10-09T05:50:50.825Z,90.02
2022-10-09T05:53:18.044Z,89.78
2022-10-09T05:55:45.068Z,89.92
2022-10-09T05:58:12.289Z,89.53
2022-10-09T06:00:39.424Z,89.81
2022-10-09T06:03:06.550Z,89.75
2022-10-09T06:05:33.620Z,89.33
2022-10-09T06:08:00.864Z,89.17
2022-10-09T06:10:32.092Z,89.72
2022-10-09T06:13:01.982Z,89.28
2022-10-09T06:15:29.278Z,89.38
2022-10-09T06:17:56.375Z,89.17
2022-10-09T06:20:23.918Z,88.99
2022-10-09T06:22:51.900Z,89.21
2022-10-09T06:25:18.996Z,88.64
2022-10-09T06:27:46.233Z,88.96
2022-10-09T06:30:13.638Z,89.06
2022-10-09T06:32:40.911Z,88.45
2022-10-09T06:35:08.598Z,88.51
2022-10-09T06:37:35.614Z,88.39
2022-10-09T06:40:02.746Z,88.50
2022-10-09T06:42:29.905Z,88.17
2022-10-09T06:44:58.343Z,88.46
2022-10-09T06:47:25.917Z,88.20
2022-10-09T06:49:53.087Z,87.78
2022-10-09T06:52:20.101Z,87.96
2022-10-09T06:54:47.185Z,87.71
2022-10-09T06:57:14.593Z,87.81
2022-10-09T06:59:41.792Z,87.44
2022-10-09T07:02:09.319Z,87.23
2022-10-09T07:04:36.464Z,87.37
2022-10-09T07:07:03.948Z,87.04
2022-10-09T07:09:31.513Z,86.85
2022-10-09T07:11:59.005Z,86.44
2022-10-09T07:14:26.288Z,86.97
2022-10-09T07:16:53.642Z,86.50
2022-10-09T07:19:21.983Z,86.81
2022-10-09T07:21:50.593Z,86.30
2022-10-09T07:24:20.934Z,86.33
2022-10-09T07:26:48.426Z,86.58
2022-10-09T07:29:18.513Z,86.13
2022-10-09T07:31:45.988Z,86.02
2022-10-09T07:34:13.217Z,85.91
2022-10-09T07:36:40.470Z,85.86
2022-10-09T07:39:07.865Z,85.56
2022-10-09T07:41:35.561Z,85.29
2022-10-09T07:44:02.800Z,84.88
2022-10-09T07:46:33.629Z,84.91
2022-10-09T07:49:02.229Z,84.79
2022-10-09T07:51:31.289Z,84.71
2022-10-09T07:54:00.445Z,84.81
2022-10-09T07:56:36.043Z,84.64
2022-10-09T07:59:06.166Z,84.85
2022-10-09T08:01:35.422Z,84.78
2022-10-09T08:04:03.213Z,84.37
2022-10-09T08:06:31.018Z,84.52
2022-10-09T08:09:00.004Z,84.68
2022-10-09T08:11:29.091Z,84.20
2022-10-09T08:13:56.315Z,84.27
2022-10-09T08:16:24.995Z,83.36
2022-10-09T08:18:57.503Z,83.30
2022-10-09T08:21:24.774Z,83.02
2022-10-09T08:23:57.079Z,83.41
2022-10-09T08:26:26.306Z,83.53
2022-10-09T08:28:56.358Z,82.88
2022-10-09T08:31:24.720Z,82.78
2022-10-09T08:33:54.166Z,82.30
2022-10-09T08:36:22.236Z,82.78
2022-10-09T08:38:49.537Z,82.67
2022-10-09T08:41:42.265Z,83.03
2022-10-09T08:44:47.075Z,82.42
2022-10-09T08:47:32.515Z,82.28
2022-10-09T08:50:24.086Z,82.80
2022-10-09T08:53:01.038Z,82.34
2022-10-09T08:55:58.823Z,81.81
2022-10-09T08:58:31.482Z,81.65
2022-10-09T09:01:29.235Z,82.11
2022-10-09T09:04:25.757Z,82.23
2022-10-09T09:07:11.364Z,81.82
2022-10-09T09:09:56.767Z,82.24
2022-10-09T09:12:29.961Z,81.78
2022-10-09T09:15:27.988Z,81.55
2022-10-09T09:17:58.219Z,81.41
2022-10-09T09:20:31.446Z,81.48
2022-10-09T09:23:01.483Z,81.65
2022-10-09T09:25:33.974Z,81.05
2022-10-09T09:28:16.262Z,80.23
2022-10-09T09:30:58.197Z,80.59
2022-10-09T09:33:42.267Z,80.29
2022-10-09T09:36:21.669Z,79.55
2022-10-09T09:39:25.255Z,79.56
2022-10-09T09:41:37.468Z,79.41
2022-10-09T09:44:06.866Z,78.27
2022-10-09T09:46:34.897Z,77.91
2022-10-09T09:49:04.788Z,78.12
2022-10-09T09:51:36.714Z,77.57
2022-10-09T09:54:17.340Z,77.58
2022-10-09T09:57:11.263Z,77.13
2022-10-09T09:59:40.425Z,77.09
2022-10-09T10:02:21.700Z,77.06
2022-10-09T10:05:00.220Z,76.97
2022-10-09T10:07:32.548Z,76.37
2022-10-09T10:10:07.602Z,76.39
2022-10-09T10:12:41.427Z,75.63
2022-10-09T10:15:19.432Z,74.63
2022-10-09T10:17:48.348Z,74.51
2022-10-09T10:20:17.736Z,74.85
2022-10-09T10:22:53.443Z,74.22
2022-10-09T10:25:25.597Z,75.19
2022-10-09T10:27:58.908Z,75.19
2022-10-09T10:30:26.103Z,75.23
2022-10-09T10:33:14.199Z,75.71
2022-10-09T10:35:44.024Z,75.86
2022-10-09T10:38:17.794Z,76.30
2022-10-09T10:40:45.174Z,76.39
2022-10-09T10:43:46.003Z,76.51
2022-10-09T10:46:52.738Z,76.08
2022-10-09T10:49:22.996Z,75.57
2022-10-09T10:51:54.189Z,76.03
2022-10-09T10:54:26.673Z,75.98
2022-10-09T10:57:26.970Z,76.31
2022-10-09T11:00:06.651Z,76.05
2022-10-09T11:02:40.950Z,75.80
2022-10-09T11:05:27.317Z,75.95
2022-10-09T11:08:03.578Z,75.83
2022-10-09T11:10:58.606Z,76.35
2022-10-09T11:13:28.600Z,75.88
2022-10-09T11:16:19.688Z,75.73
2022-10-09T11:18:46.873Z,75.94
2022-10-09T11:21:17.475Z,75.38
2022-10-09T11:23:59.923Z,75.40
2022-10-09T11:26:53.044Z,75.86
2022-10-09T11:29:37.317Z,75.84
2022-10-09T11:32:19.185Z,75.80
2022-10-09T11:35:07.620Z,76.30
2022-10-09T11:37:39.472Z,76.06
2022-10-09T11:40:13.857Z,75.43
2022-10-09T11:42:42.274Z,76.70
2022-10-09T11:45:29.447Z,76.02
2022-10-09T11:48:30.573Z,75.61
2022-10-09T11:51:23.674Z,74.69
2022-10-09T11:53:53.585Z,73.94
2022-10-09T11:56:26.354Z,74.01
2022-10-09T11:59:02.483Z,74.14
2022-10-09T12:01:36.236Z,73.59
2022-10-09T12:04:37.352Z,73.87
2022-10-09T12:07:13.003Z,73.16
2022-10-09T12:09:48.798Z,73.46
2022-10-09T12:12:15.786Z,72.94
2022-10-09T12:14:45.689Z,72.32
2022-10-09T12:17:22.863Z,71.40
2022-10-09T12:20:04.614Z,71.09
2022-10-09T12:22:41.631Z,70.21
2022-10-09T12:25:30.861Z,69.32
2022-10-09T12:28:00.603Z,68.29
2022-10-09T12:30:47.486Z,68.94
2022-10-09T12:33:14.934Z,68.75
2022-10-09T12:35:46.275Z,69.16
2022-10-09T12:38:26.758Z,69.42
2022-10-09T12:40:57.989Z,68.70
2022-10-09T12:43:25.487Z,68.36
2022-10-09T12:45:54.242Z,68.53
2022-10-09T12:48:26.204Z,67.89
2022-10-09T12:50:53.959Z,67.93
2022-10-09T12:53:24.167Z,68.18
2022-10-09T12:56:01.053Z,68.30
2022-10-09T12:58:30.115Z,68.57
2022-10-09T13:01:01.410Z,67.58
2022-10-09T13:03:43.946Z,67.14
2022-10-09T13:06:17.794Z,67.37
2022-10-09T13:08:46.161Z,67.32
2022-10-09T13:11:24.716Z,67.65
2022-10-09T13:13:54.158Z,67.47
2022-10-09T13:16:22.647Z,68.22
2022-10-09T13:19:04.198Z,67.47
2022-10-09T13:21:35.611Z,67.69
2022-10-09T13:24:13.755Z,68.04
2022-10-09T13:26:44.284Z,67.58
2022-10-09T13:29:13.755Z,67.69
2022-10-09T13:31:43.886Z,67.64
2022-10-09T13:34:14.715Z,67.33
2022-10-09T13:36:42.149Z,67.54
2022-10-09T13:39:16.575Z,67.55
2022-10-09T13:41:45.267Z,67.13
2022-10-09T13:44:12.345Z,67.38
2022-10-09T13:46:39.397Z,67.25
2022-10-09T13:49:06.466Z,66.78
2022-10-09T13:51:33.854Z,66.96
2022-10-09T13:54:01.161Z,67.31
2022-10-09T13:56:29.284Z,67.03
2022-10-09T13:58:56.637Z,66.92
2022-10-09T14:01:23.893Z,67.00
2022-10-09T14:03:51.257Z,66.63
2022-10-09T14:06:18.754Z,66.99
2022-10-09T14:08:46.033Z,66.40
2022-10-09T14:11:13.113Z,66.67
2022-10-09T14:13:40.129Z,66.99
2022-10-09T14:16:08.030Z,67.07
2022-10-09T14:18:35.254Z,66.86
2022-10-09T14:21:13.934Z,66.92
2022-10-09T14:23:42.296Z,67.35
2022-10-09T14:26:09.852Z,68.04
2022-10-09T14:28:37.441Z,67.24
2022-10-09T14:31:07.124Z,67.24
2022-10-09T14:33:34.534Z,67.43
2022-10-09T14:36:16.304Z,67.15
2022-10-09T14:38:43.427Z,67.49
2022-10-09T14:41:12.193Z,67.85
2022-10-09T14:43:39.353Z,67.76
2022-10-09T14:46:12.832Z,67.34
2022-10-09T14:48:40.481Z,66.86
2022-10-09T14:51:21.595Z,66.98
2022-10-09T14:53:48.714Z,67.02
2022-10-09T14:56:18.622Z,66.28
2022-10-09T14:58:46.433Z,65.62
2022-10-09T15:01:15.654Z,65.70
2022-10-09T15:03:43.435Z,65.91
2022-10-09T15:06:12.877Z,66.39
2022-10-09T15:08:43.268Z,66.13
2022-10-09T15:11:11.235Z,66.77
2022-10-09T15:13:39.663Z,66.74
2022-10-09T15:16:10.019Z,67.04
2022-10-09T15:18:37.159Z,67.47
2022-10-09T15:21:04.813Z,67.47
2022-10-09T15:23:32.185Z,67.59
2022-10-09T15:26:01.503Z,67.66
2022-10-09T15:28:28.936Z,68.15
2022-10-09T15:31:00.558Z,68.02
2022-10-09T15:33:28.034Z,68.80
2022-10-09T15:35:55.080Z,69.12
2022-10-09T15:38:23.869Z,69.08
2022-10-09T15:40:54.043Z,69.83
2022-10-09T15:43:23.633Z,70.48
2022-10-09T15:45:51.647Z,71.74
2022-10-09T15:48:22.612Z,71.66
2022-10-09T15:50:54.183Z,72.30
2022-10-09T15:53:23.711Z,73.06
2022-10-09T15:55:53.463Z,73.00
2022-10-09T15:58:21.042Z,73.13
2022-10-09T16:00:50.103Z,72.70
2022-10-09T16:03:18.348Z,73.57
2022-10-09T16:05:49.244Z,73.29
2022-10-09T16:08:18.068Z,74.23
2022-10-09T16:10:49.166Z,73.67
2022-10-09T16:13:17.024Z,73.87
2022-10-09T16:15:47.603Z,74.49
2022-10-09T16:18:22.725Z,74.72
2022-10-09T16:20:51.229Z,74.91
2022-10-09T16:23:19.160Z,75.07
2022-10-09T16:25:58.087Z,75.79
2022-10-09T16:28:26.035Z,76.41
2022-10-09T16:30:53.563Z,76.69
2022-10-09T16:33:20.925Z,77.09
2022-10-09T16:35:48.196Z,77.16
2022-10-09T16:38:16.104Z,77.77
2022-10-09T16:41:01.929Z,77.96
2022-10-09T16:43:33.234Z,78.24
2022-10-09T16:46:23.547Z,78.38
2022-10-09T16:48:51.405Z,78.52
2022-10-09T16:51:24.479Z,78.58
2022-10-09T16:53:53.535Z,78.75
2022-10-09T16:56:23.938Z,78.74
2022-10-09T16:58:53.762Z,78.52
2022-10-09T17:01:21.104Z,78.54
2022-10-09T17:03:48.296Z,78.86
2022-10-09T17:06:21.098Z,78.84
2022-10-09T17:08:48.637Z,79.30
2022-10-09T17:11:17.387Z,79.24
2022-10-09T17:13:46.087Z,79.11
2022-10-09T17:16:18.486Z,79.36
2022-10-09T17:18:48.067Z,78.90
2022-10-09T17:21:17.672Z,79.13
2022-10-09T17:23:45.947Z,79.27
2022-10-09T17:26:17.173Z,79.47
2022-10-09T17:28:45.666Z,79.27
2022-10-09T17:31:15.803Z,79.38
2022-10-09T17:33:46.270Z,79.53
2022-10-09T17:36:17.199Z,79.75
2022-10-09T17:38:45.284Z,79.33
2022-10-09T17:41:14.906Z,79.83
2022-10-09T17:43:42.642Z,79.90
2022-10-09T17:46:09.764Z,79.92
2022-10-09T17:48:39.571Z,79.59
2022-10-09T17:51:06.828Z,79.19
2022-10-09T17:53:33.834Z,79.10
2022-10-09T17:56:04.553Z,79.67
2022-10-09T17:58:31.673Z,79.71
2022-10-09T18:00:59.128Z,79.43
2022-10-09T18:03:26.236Z,79.86
2022-10-09T18:05:53.443Z,80.03
2022-10-09T18:08:20.723Z,80.32
2022-10-09T18:10:48.281Z,80.01
2022-10-09T18:13:15.694Z,80.07
2022-10-09T18:15:44.392Z,80.23
2022-10-09T18:18:12.224Z,80.30
2022-10-09T18:20:40.793Z,80.17
2022-10-09T18:23:08.854Z,79.45
2022-10-09T18:25:41.448Z,79.50
2022-10-09T18:28:09.667Z,79.83
2022-10-09T18:30:46.673Z,80.45
2022-10-09T18:33:14.014Z,80.26
2022-10-09T18:35:41.163Z,80.47
2022-10-09T18:38:09.954Z,80.62
2022-10-09T18:40:45.604Z,80.65
2022-10-09T18:43:13.543Z,80.36
2022-10-09T18:45:45.755Z,80.89
2022-10-09T18:48:14.371Z,80.42
2022-10-09T18:50:41.695Z,80.44
2022-10-09T18:53:09.122Z,79.96
2022-10-09T18:55:36.223Z,80.39
2022-10-09T18:58:05.088Z,80.52
2022-10-09T19:00:32.275Z,80.57
2022-10-09T19:02:59.471Z,80.49
2022-10-09T19:05:26.771Z,80.54
2022-10-09T19:07:56.034Z,80.79
2022-10-09T19:10:23.315Z,81.55
2022-10-09T19:12:52.792Z,81.88
2022-10-09T19:15:20.160Z,80.74
2022-10-09T19:17:47.880Z,81.12
2022-10-09T19:20:15.510Z,80.75
2022-10-09T19:22:42.866Z,81.05
2022-10-09T19:25:10.146Z,81.25
2022-10-09T19:27:38.023Z,80.83
2022-10-09T19:30:06.045Z,81.49
2022-10-09T19:32:33.386Z,81.26
2022-10-09T19:35:00.573Z,81.45
2022-10-09T19:37:29.806Z,81.72
2022-10-09T19:39:57.608Z,82.16
2022-10-09T19:42:25.064Z,81.97
2022-10-09T19:44:52.393Z,82.35
2022-10-09T19:47:19.588Z,82.31
2022-10-09T19:49:46.704Z,82.80
2022-10-09T19:52:13.908Z,83.08
2022-10-09T19:54:40.985Z,83.48
2022-10-09T19:57:08.184Z,83.91
2022-10-09T19:59:35.465Z,84.05
2022-10-09T20:02:02.545Z,83.31
2022-10-09T20:04:29.758Z,83.71
2022-10-09T20:06:56.934Z,84.00
2022-10-09T20:09:24.039Z,84.12
2022-10-09T20:11:51.104Z,84.07
2022-10-09T20:14:18.313Z,84.37
2022-10-09T20:16:45.509Z,83.92
2022-10-09T20:19:13.864Z,84.61
2022-10-09T20:21:40.909Z,83.64
2022-10-09T20:24:08.524Z,83.77
2022-10-09T20:26:39.690Z,83.92
2022-10-09T20:29:09.346Z,83.75
2022-10-09T20:31:36.691Z,83.57
2022-10-09T20:34:03.764Z,83.95
2022-10-09T20:36:35.124Z,84.44
2022-10-09T20:39:05.906Z,84.24
2022-10-09T20:41:33.283Z,83.79
2022-10-09T20:44:02.358Z,83.65
2022-10-09T20:46:36.025Z,83.89
2022-10-09T20:49:05.233Z,83.73
2022-10-09T20:51:34.873Z,83.36
2022-10-09T20:54:02.685Z,83.94
2022-10-09T20:56:31.614Z,83.79
2022-10-09T20:58:59.756Z,84.34
2022-10-09T21:01:28.942Z,83.86
2022-10-09T21:03:57.837Z,84.06
2022-10-09T21:06:25.509Z,84.37
2022-10-09T21:08:53.040Z,83.76
2022-10-09T21:11:21.121Z,84.18
2022-10-09T21:13:49.225Z,84.23
2022-10-09T21:16:20.473Z,84.10
2022-10-09T21:18:48.650Z,84.12
2022-10-09T21:21:17.769Z,83.92
2022-10-09T21:23:46.307Z,84.41
2022-10-09T21:26:15.951Z,83.59
2022-10-09T21:28:44.402Z,83.87
2022-10-09T21:31:23.617Z,83.66
2022-10-09T21:33:50.754Z,83.28
2022-10-09T21:36:33.420Z,83.96
2022-10-09T21:39:00.685Z,83.05
2022-10-09T21:41:28.198Z,83.69
2022-10-09T21:43:55.543Z,83.34
2022-10-09T21:46:23.103Z,83.85
2022-10-09T21:48:50.706Z,83.78
2022-10-09T21:51:17.947Z,84.18
2022-10-09T21:53:45.262Z,83.61
2022-10-09T21:56:12.517Z,84.04
2022-10-09T21:58:41.956Z,83.79
2022-10-09T22:01:10.765Z,83.87
2022-10-09T22:03:38.400Z,84.04
2022-10-09T22:06:08.107Z,84.32
2022-10-09T22:08:35.840Z,84.26
2022-10-09T22:11:07.834Z,84.89
2022-10-09T22:13:35.066Z,84.33
2022-10-09T22:16:06.729Z,84.71
2022-10-09T22:18:34.455Z,84.32
2022-10-09T22:21:14.370Z,84.38
2022-10-09T22:23:42.282Z,84.69
2022-10-09T22:26:14.228Z,84.69
2022-10-09T22:28:41.511Z,84.92
2022-10-09T22:31:14.144Z,85.06
2022-10-09T22:33:41.905Z,84.52
2022-10-09T22:36:15.186Z,85.11
2022-10-09T22:38:43.064Z,84.80
2022-10-09T22:41:14.024Z,84.65
2022-10-09T22:43:42.024Z,84.85
2022-10-09T22:46:26.664Z,85.02
2022-10-09T22:48:54.053Z,84.75
2022-10-09T22:51:23.416Z,85.45
2022-10-09T22:53:50.828Z,84.65
2022-10-09T22:56:21.062Z,84.56
2022-10-09T22:58:49.206Z,84.60
2022-10-09T23:01:18.418Z,84.54
2022-10-09T23:03:45.742Z,84.76
2022-10-09T23:06:16.256Z,85.18
2022-10-09T23:08:45.623Z,84.74
2022-10-09T23:11:13.503Z,84.96
2022-10-09T23:13:41.154Z,84.67
2022-10-09T23:16:10.850Z,84.39
2022-10-09T23:18:38.717Z,84.89
2022-10-09T23:21:08.953Z,85.25
2022-10-09T23:23:36.149Z,85.08
2022-10-09T23:26:07.778Z,85.14
2022-10-09T23:28:35.737Z,84.77
2022-10-09T23:31:07.865Z,85.40
2022-10-09T23:33:36.039Z,85.40
2022-10-09T23:36:03.506Z,85.54
2022-10-09T23:38:31.008Z,85.29
2022-10-09T23:41:02.945Z,84.86
2022-10-09T23:43:31.195Z,85.44
2022-10-09T23:46:00.771Z,85.46
2022-10-09T23:48:28.592Z,84.72
2022-10-09T23:50:56.913Z,85.41
2022-10-09T23:53:26.362Z,85.28
2022-10-09T23:55:54.691Z,85.81
2022-10-09T23:58:22.435Z,86.08
